createdAt,value
2019-02-07T00:01:34.585Z,27.90
2019-02-07T00:06:35.687Z,37.93
2019-02-07T00:11:37.083Z,21.80
2019-02-07T00:16:39.867Z,17.57
2019-02-07T00:21:41.008Z,19.87
2019-02-07T00:26:42.107Z,22.20
2019-02-07T00:31:43.411Z,19.30
2019-02-07T00:36:44.500Z,22.33
2019-02-07T00:41:45.716Z,15.17
2019-02-07T00:46:46.929Z,48.33
2019-02-07T00:51:48.240Z,55.47
2019-02-07T00:56:49.669Z,41.73
2019-02-07T01:01:51.090Z,49.30
2019-02-07T01:06:52.287Z,33.13
2019-02-07T01:11:53.475Z,38.37
2019-02-07T01:16:54.566Z,37.20
2019-02-07T01:21:55.767Z,41.67
2019-02-07T01:26:56.920Z,37.80
2019-02-07T01:31:58.010Z,40.83
2019-02-07T01:36:59.623Z,35.57
2019-02-07T01:42:00.818Z,38.80
2019-02-07T01:47:02.285Z,43.73
2019-02-07T01:52:03.804Z,36.23
2019-02-07T01:57:04.903Z,38.03
2019-02-07T02:02:06.095Z,35.53
2019-02-07T02:07:07.289Z,36.97
2019-02-07T02:12:08.583Z,41.70
2019-02-07T02:17:10.083Z,35.40
2019-02-07T02:22:11.407Z,36.10
2019-02-07T02:27:12.532Z,40.90
2019-02-07T02:32:13.724Z,37.43
2019-02-07T02:37:14.927Z,40.50
2019-02-07T02:42:16.026Z,40.87
2019-02-07T02:47:17.352Z,29.87
2019-02-07T02:52:18.479Z,22.40
2019-02-07T02:57:19.683Z,22.97
2019-02-07T03:02:22.787Z,22.03
2019-02-07T03:07:26.010Z,21.47
2019-02-07T03:12:32.107Z,21.03
2019-02-07T03:17:35.220Z,25.00
2019-02-07T03:22:50.373Z,20.77
2019-02-07T03:28:02.611Z,23.27
2019-02-07T03:33:05.976Z,26.10
2019-02-07T03:38:25.586Z,24.60
2019-02-07T03:43:45.268Z,21.67
2019-02-07T03:48:48.310Z,24.13
2019-02-07T03:54:07.930Z,28.17
2019-02-07T03:59:13.712Z,50.63
2019-02-07T04:04:25.798Z,40.13
2019-02-07T04:09:40.759Z,39.03
2019-02-07T04:14:46.506Z,37.43
2019-02-07T04:20:06.200Z,23.50
2019-02-07T04:25:09.298Z,21.03
2019-02-07T04:30:12.596Z,24.40
2019-02-07T04:35:33.705Z,26.77
2019-02-07T04:40:40.179Z,21.20
2019-02-07T04:45:52.127Z,20.60
2019-02-07T04:50:55.176Z,19.63
2019-02-07T04:56:13.710Z,18.27
2019-02-07T05:01:28.717Z,15.73
2019-02-07T05:06:48.319Z,19.50
2019-02-07T05:11:51.327Z,15.10
2019-02-07T05:16:54.342Z,24.70
2019-02-07T05:22:13.928Z,47.67
2019-02-07T05:27:17.017Z,48.73
2019-02-07T05:32:36.907Z,45.40
2019-02-07T05:37:42.913Z,45.77
2019-02-07T05:42:49.294Z,42.87
2019-02-07T05:48:01.414Z,40.60
2019-02-07T05:53:07.695Z,36.10
2019-02-07T05:58:10.771Z,42.73
2019-02-07T06:03:19.829Z,40.97
2019-02-07T06:08:25.792Z,49.93
2019-02-07T06:13:40.899Z,41.23
2019-02-07T06:18:56.043Z,52.83
2019-02-07T06:23:59.185Z,57.27
2019-02-07T06:29:08.231Z,60.50
2019-02-07T06:34:28.996Z,60.83
2019-02-07T06:39:37.226Z,58.83
2019-02-07T06:44:43.248Z,54.03
2019-02-07T06:49:46.271Z,40.17
2019-02-07T06:54:57.318Z,36.80
2019-02-07T07:00:00.464Z,40.78
2019-02-07T07:05:20.648Z,34.77
2019-02-07T07:10:32.617Z,30.00
2019-02-07T07:15:40.262Z,31.57
2019-02-07T07:20:52.143Z,34.80
2019-02-07T07:25:55.157Z,28.87
2019-02-07T07:31:00.973Z,29.33
2019-02-07T07:36:12.933Z,28.20
2019-02-07T07:41:25.535Z,31.70
2019-02-07T07:46:43.995Z,32.47
2019-02-07T07:51:49.940Z,35.63
2019-02-07T07:56:52.940Z,42.73
2019-02-07T08:02:12.854Z,35.17
2019-02-07T08:07:16.455Z,36.87
2019-02-07T08:12:22.884Z,38.63
2019-02-07T08:17:31.948Z,34.40
2019-02-07T08:22:46.916Z,31.20
2019-02-07T08:28:06.506Z,25.23
2019-02-07T08:33:18.714Z,34.23
2019-02-07T08:38:21.734Z,27.27
2019-02-07T08:43:30.525Z,29.80
2019-02-07T08:48:37.128Z,29.43
2019-02-07T08:53:59.896Z,37.97
2019-02-07T08:59:18.263Z,40.63
2019-02-07T09:04:30.301Z,34.53
2019-02-07T09:09:48.343Z,30.47
2019-02-07T09:15:00.304Z,36.17
2019-02-07T09:20:03.621Z,37.93
2019-02-07T09:25:10.130Z,29.03
2019-02-07T09:30:28.713Z,30.73
2019-02-07T09:35:31.718Z,33.90
2019-02-07T09:40:34.715Z,33.67
2019-02-07T09:45:54.549Z,39.93
2019-02-07T09:51:06.704Z,36.53
2019-02-07T09:56:18.731Z,37.77
2019-02-07T10:01:24.719Z,39.13
2019-02-07T10:06:36.739Z,32.17
2019-02-07T10:11:55.039Z,37.00
2019-02-07T10:17:01.188Z,36.67
2019-02-07T10:22:07.036Z,29.97
2019-02-07T10:27:15.987Z,39.03
2019-02-07T10:32:24.807Z,29.87
2019-02-07T10:37:28.111Z,36.13
2019-02-07T10:42:43.581Z,31.00
2019-02-07T10:48:02.040Z,32.90
2019-02-07T10:53:20.609Z,33.43
2019-02-07T10:58:32.560Z,26.13
2019-02-07T11:03:44.529Z,27.33
2019-02-07T11:08:56.852Z,26.53
2019-02-07T11:14:12.107Z,28.20
2019-02-07T11:19:31.934Z,23.73
2019-02-07T11:24:43.864Z,27.03
2019-02-07T11:29:46.869Z,25.00
2019-02-07T11:34:49.923Z,28.53
2019-02-07T11:39:52.922Z,26.97
2019-02-07T11:44:58.921Z,30.03
2019-02-07T11:50:14.328Z,37.70
2019-02-07T11:55:17.460Z,39.70
2019-02-07T12:00:20.856Z,48.80
2019-02-07T12:05:39.079Z,54.37
2019-02-07T12:10:42.188Z,37.23
2019-02-07T12:15:48.174Z,35.37
2019-02-07T12:21:06.420Z,39.90
2019-02-07T12:26:09.433Z,37.53
2019-02-07T12:31:22.039Z,46.17
2019-02-07T12:36:27.939Z,42.83
2019-02-07T12:41:48.115Z,41.37
2019-02-07T12:46:51.136Z,31.03
2019-02-07T12:51:54.301Z,33.80
2019-02-07T12:57:03.684Z,36.73
2019-02-07T13:02:13.194Z,43.53
2019-02-07T13:07:19.271Z,43.20
2019-02-07T13:12:25.298Z,44.67
2019-02-07T13:17:31.669Z,45.73
2019-02-07T13:22:37.741Z,47.57
2019-02-07T13:27:44.365Z,38.33
2019-02-07T13:32:47.560Z,41.57
2019-02-07T13:37:50.681Z,43.73
2019-02-07T13:43:02.356Z,47.70
2019-02-07T13:48:06.011Z,52.37
2019-02-07T13:53:09.316Z,45.00
2019-02-07T13:58:32.574Z,47.43
2019-02-07T14:03:44.448Z,48.97
2019-02-07T14:08:47.564Z,49.37
2019-02-07T14:13:53.425Z,56.20
2019-02-07T14:18:56.765Z,45.97
2019-02-07T14:23:59.883Z,20.43
2019-02-07T14:29:19.471Z,14.37
2019-02-07T14:34:28.330Z,17.17
2019-02-07T14:39:34.928Z,8.43
2019-02-07T14:44:38.025Z,12.83
2019-02-07T14:49:39.235Z,4.47
2019-02-07T14:54:40.362Z,4.43
2019-02-07T14:59:41.560Z,3.60
2019-02-07T15:04:42.852Z,3.60
2019-02-07T15:09:43.992Z,3.90
2019-02-07T15:14:45.089Z,4.53
2019-02-07T15:19:46.605Z,5.13
2019-02-07T15:24:47.732Z,7.60
2019-02-07T15:29:48.860Z,9.70
2019-02-07T15:34:50.055Z,6.43
2019-02-07T15:39:51.250Z,8.80
2019-02-07T15:44:52.488Z,9.40
2019-02-07T15:49:53.897Z,10.97
2019-02-07T15:54:55.141Z,11.00
2019-02-07T15:59:56.247Z,16.80
2019-02-07T16:04:57.575Z,19.03
2019-02-07T16:09:58.908Z,20.07
2019-02-07T16:15:00.519Z,19.57
2019-02-07T16:20:04.617Z,23.37
2019-02-07T16:25:12.097Z,23.90
2019-02-07T16:30:15.212Z,25.43
2019-02-07T16:35:18.772Z,25.33
2019-02-07T16:40:21.920Z,21.53
2019-02-07T16:45:25.062Z,28.50
2019-02-07T16:50:28.703Z,25.43
2019-02-07T16:55:30.045Z,30.13
2019-02-07T17:00:33.328Z,23.73
2019-02-07T17:05:34.649Z,22.87
2019-02-07T17:10:40.025Z,25.40
2019-02-07T17:15:41.239Z,24.33
2019-02-07T17:20:42.938Z,24.77
2019-02-07T17:25:44.397Z,26.17
2019-02-07T17:30:46.016Z,26.00
2019-02-07T17:35:49.894Z,21.93
2019-02-07T17:40:50.532Z,24.30
2019-02-07T17:45:51.881Z,25.47
2019-02-07T17:50:53.206Z,22.40
2019-02-07T17:55:54.355Z,22.37
2019-02-07T18:00:59.986Z,24.87
2019-02-07T18:06:01.542Z,23.97
2019-02-07T18:11:04.071Z,7.90
2019-02-07T18:16:05.500Z,13.50
2019-02-07T18:21:06.584Z,5.30
2019-02-07T18:26:07.913Z,7.67
2019-02-07T18:31:09.316Z,10.40
2019-02-07T18:36:10.908Z,8.33
2019-02-07T18:41:12.108Z,5.63
2019-02-07T18:46:13.219Z,4.03
2019-02-07T18:51:14.355Z,5.30
2019-02-07T18:56:15.480Z,5.87
2019-02-07T19:01:16.652Z,8.37
2019-02-07T19:06:18.163Z,6.67
2019-02-07T19:11:19.334Z,5.17
2019-02-07T19:16:20.663Z,3.07
2019-02-07T19:21:21.907Z,3.70
2019-02-07T19:26:23.120Z,5.10
2019-02-07T19:31:24.284Z,5.37
2019-02-07T19:36:25.600Z,7.93
2019-02-07T19:41:26.777Z,5.17
2019-02-07T19:46:27.947Z,24.73
2019-02-07T19:51:29.743Z,6.20
2019-02-07T19:56:31.323Z,6.13
2019-02-07T20:01:32.593Z,8.53
2019-02-07T20:06:33.919Z,8.80
2019-02-07T20:11:35.268Z,13.57
2019-02-07T20:16:36.793Z,20.37
2019-02-07T20:21:38.377Z,22.90
2019-02-07T20:26:39.485Z,13.20
2019-02-07T20:31:40.905Z,10.30
2019-02-07T20:36:44.872Z,10.40
2019-02-07T20:41:46.174Z,7.17
2019-02-07T20:46:47.596Z,6.30
2019-02-07T20:51:48.732Z,7.40
2019-02-07T20:56:49.963Z,6.33
2019-02-07T21:01:51.336Z,5.80
2019-02-07T21:06:52.577Z,8.07
2019-02-07T21:11:53.726Z,5.67
2019-02-07T21:16:54.842Z,8.03
2019-02-07T21:21:56.050Z,8.17
2019-02-07T21:26:57.171Z,6.07
2019-02-07T21:31:58.388Z,4.43
2019-02-07T21:36:59.534Z,5.97
2019-02-07T21:42:00.832Z,10.00
2019-02-07T21:47:01.951Z,5.77
2019-02-07T21:52:03.235Z,4.03
2019-02-07T21:57:04.587Z,8.90
2019-02-07T22:02:05.877Z,6.90
2019-02-07T22:07:06.987Z,8.23
2019-02-07T22:12:08.104Z,9.83
2019-02-07T22:17:09.434Z,8.43
2019-02-07T22:22:10.712Z,7.90
2019-02-07T22:27:12.211Z,7.00
2019-02-07T22:32:13.295Z,8.30
2019-02-07T22:37:14.383Z,5.77
2019-02-07T22:42:15.814Z,5.73
2019-02-07T22:47:17.014Z,10.03
2019-02-07T22:52:18.136Z,7.73
2019-02-07T22:57:19.773Z,6.37
2019-02-07T23:02:21.000Z,6.07
2019-02-07T23:07:22.205Z,9.27
2019-02-07T23:12:23.512Z,9.90
2019-02-07T23:17:24.614Z,7.43
2019-02-07T23:22:26.320Z,10.83
2019-02-07T23:27:27.531Z,5.13
2019-02-07T23:32:28.708Z,7.37
2019-02-07T23:37:29.912Z,3.73
2019-02-07T23:42:31.003Z,5.73
2019-02-07T23:47:32.299Z,3.37
2019-02-07T23:52:33.442Z,7.57
2019-02-07T23:57:34.531Z,8.73
